KMXF

Maxwell AFB Airport

Montgomery, Alabama, USA
METAR KMXF 150256Z AUTO 00000KT 9SM CLR 23/23 A3003 RMK AO2 SLP170 T02320227 53012 $
Observed Flight Rules
Aug-15 @ 02:56 UTC (41 minutes ago) Visual Flight Rules
Visibility Clouds
9 miles
  • Clear skies
Temperatures Readings
Current 23°C / 73°F
Dewpoint 23°C / 73°F
Humidity 100%
Altimeter 30.03" Hg
Pressure 1017 hPa
Elevation 51
METAR KMXF 150256Z AUTO 00000KT 9SM CLR 23/23 A3003 RMK AO2 SLP170 T02320227 53012 $
Observed Flight Rules
Aug-15 @ 02:56 UTC
(41 minutes ago)
VFR
Clouds
  • Clear skies
Temperature Dewpoint
23°C / 73°F 23°C / 73°F
Humidity Altimeter Pressure
100% 30.03" Hg 1017 hPa